sensor_id;sensor_type;location;lat;lon;timestamp;pressure;altitude;pressure_sealevel;temperature;humidity
17785;BME280;9016;53.582;10.062;2023-04-03T00:02:12;103302.66;;;3.72;68.73
17785;BME280;9016;53.582;10.062;2023-04-03T00:04:40;103305.34;;;3.81;68.94
17785;BME280;9016;53.582;10.062;2023-04-03T00:07:08;103309.81;;;3.86;68.35
17785;BME280;9016;53.582;10.062;2023-04-03T00:09:36;103308.06;;;3.85;68.67
17785;BME280;9016;53.582;10.062;2023-04-03T00:12:07;103307.22;;;3.95;68.98
17785;BME280;9016;53.582;10.062;2023-04-03T00:14:36;103302.88;;;3.99;68.70
17785;BME280;9016;53.582;10.062;2023-04-03T00:17:05;103303.75;;;3.99;68.76
17785;BME280;9016;53.582;10.062;2023-04-03T00:19:33;103305.53;;;4.02;68.13
17785;BME280;9016;53.582;10.062;2023-04-03T00:22:01;103315.16;;;3.95;68.48
17785;BME280;9016;53.582;10.062;2023-04-03T00:24:32;103311.47;;;3.74;68.81
17785;BME280;9016;53.582;10.062;2023-04-03T00:27:00;103314.09;;;3.74;69.56
17785;BME280;9016;53.582;10.062;2023-04-03T00:29:28;103315.06;;;3.85;68.99
17785;BME280;9016;53.582;10.062;2023-04-03T00:31:56;103315.06;;;3.86;68.50
17785;BME280;9016;53.582;10.062;2023-04-03T00:34:26;103317.78;;;3.94;68.12
17785;BME280;9016;53.582;10.062;2023-04-03T00:36:54;103319.44;;;3.80;69.08
17785;BME280;9016;53.582;10.062;2023-04-03T00:39:22;103320.34;;;3.85;68.72
17785;BME280;9016;53.582;10.062;2023-04-03T00:41:50;103315.97;;;3.87;68.75
17785;BME280;9016;53.582;10.062;2023-04-03T00:44:20;103313.31;;;3.85;68.54
17785;BME280;9016;53.582;10.062;2023-04-03T00:46:49;103315.91;;;3.81;68.94
17785;BME280;9016;53.582;10.062;2023-04-03T00:49:17;103320.28;;;3.82;68.44
17785;BME280;9016;53.582;10.062;2023-04-03T00:51:46;103317.69;;;3.83;68.09
17785;BME280;9016;53.582;10.062;2023-04-03T00:54:15;103317.63;;;3.77;68.16
17785;BME280;9016;53.582;10.062;2023-04-03T00:56:43;103325.50;;;3.73;69.51
17785;BME280;9016;53.582;10.062;2023-04-03T00:59:14;103321.16;;;3.78;69.35
17785;BME280;9016;53.582;10.062;2023-04-03T01:01:44;103321.19;;;3.82;69.09
17785;BME280;9016;53.582;10.062;2023-04-03T01:04:26;103329.16;;;3.87;68.56
17785;BME280;9016;53.582;10.062;2023-04-03T01:06:58;103329.94;;;3.78;68.81
17785;BME280;9016;53.582;10.062;2023-04-03T01:09:28;103323.81;;;3.78;69.32
17785;BME280;9016;53.582;10.062;2023-04-03T01:12:13;103326.41;;;3.75;68.34
17785;BME280;9016;53.582;10.062;2023-04-03T01:14:42;103322.84;;;3.73;68.90
17785;BME280;9016;53.582;10.062;2023-04-03T01:17:29;103316.78;;;3.80;68.49
17785;BME280;9016;53.582;10.062;2023-04-03T01:20:20;103319.38;;;3.75;68.67
17785;BME280;9016;53.582;10.062;2023-04-03T01:22:57;103317.56;;;3.70;69.22
17785;BME280;9016;53.582;10.062;2023-04-03T01:25:27;103324.56;;;3.63;68.84
17785;BME280;9016;53.582;10.062;2023-04-03T01:27:55;103321.03;;;3.63;69.72
17785;BME280;9016;53.582;10.062;2023-04-03T01:30:26;103318.41;;;3.66;68.68
17785;BME280;9016;53.582;10.062;2023-04-03T01:32:57;103323.69;;;3.67;69.02
17785;BME280;9016;53.582;10.062;2023-04-03T01:35:25;103326.38;;;3.69;68.88
17785;BME280;9016;53.582;10.062;2023-04-03T01:37:53;103320.19;;;3.67;68.86
17785;BME280;9016;53.582;10.062;2023-04-03T01:40:21;103321.94;;;3.68;69.86
17785;BME280;9016;53.582;10.062;2023-04-03T01:42:49;103319.34;;;3.72;68.88
17785;BME280;9016;53.582;10.062;2023-04-03T01:45:18;103310.53;;;3.69;69.76
17785;BME280;9016;53.582;10.062;2023-04-03T01:47:46;103317.56;;;3.70;68.42
17785;BME280;9016;53.582;10.062;2023-04-03T01:50:15;103319.19;;;3.56;69.81
17785;BME280;9016;53.582;10.062;2023-04-03T01:52:43;103327.06;;;3.53;69.71
17785;BME280;9016;53.582;10.062;2023-04-03T01:55:12;103326.13;;;3.48;70.38
17785;BME280;9016;53.582;10.062;2023-04-03T01:57:40;103333.13;;;3.44;70.83
17785;BME280;9016;53.582;10.062;2023-04-03T02:00:09;103336.69;;;3.48;70.77
17785;BME280;9016;53.582;10.062;2023-04-03T02:02:38;103331.41;;;3.48;70.48
17785;BME280;9016;53.582;10.062;2023-04-03T02:05:07;103327.97;;;3.56;69.84
17785;BME280;9016;53.582;10.062;2023-04-03T02:07:38;103342.78;;;3.44;70.63
17785;BME280;9016;53.582;10.062;2023-04-03T02:10:07;103331.47;;;3.52;70.11
17785;BME280;9016;53.582;10.062;2023-04-03T02:12:36;103327.13;;;3.57;69.88
17785;BME280;9016;53.582;10.062;2023-04-03T02:15:05;103328.88;;;3.60;70.29
17785;BME280;9016;53.582;10.062;2023-04-03T02:17:36;103320.03;;;3.53;69.97
17785;BME280;9016;53.582;10.062;2023-04-03T02:20:07;103328.75;;;3.45;70.40
17785;BME280;9016;53.582;10.062;2023-04-03T02:22:35;103331.25;;;3.31;71.66
17785;BME280;9016;53.582;10.062;2023-04-03T02:25:05;103332.16;;;3.35;70.46
17785;BME280;9016;53.582;10.062;2023-04-03T02:27:36;103330.44;;;3.38;71.18
17785;BME280;9016;53.582;10.062;2023-04-03T02:30:05;103328.69;;;3.40;70.47
17785;BME280;9016;53.582;10.062;2023-04-03T02:32:33;103333.84;;;3.28;71.46
17785;BME280;9016;53.582;10.062;2023-04-03T02:35:02;103336.53;;;3.36;70.64
17785;BME280;9016;53.582;10.062;2023-04-03T02:37:30;103339.06;;;3.27;71.31
17785;BME280;9016;53.582;10.062;2023-04-03T02:39:58;103347.03;;;3.28;71.48
17785;BME280;9016;53.582;10.062;2023-04-03T02:42:28;103340.78;;;3.22;71.89
17785;BME280;9016;53.582;10.062;2023-04-03T02:44:56;103344.34;;;3.25;71.64
17785;BME280;9016;53.582;10.062;2023-04-03T02:47:26;103346.97;;;3.25;71.38
17785;BME280;9016;53.582;10.062;2023-04-03T02:49:55;103352.13;;;3.16;71.62
17785;BME280;9016;53.582;10.062;2023-04-03T02:52:23;103345.88;;;3.08;72.24
17785;BME280;9016;53.582;10.062;2023-04-03T02:54:51;103348.59;;;3.16;71.92
17785;BME280;9016;53.582;10.062;2023-04-03T02:57:19;103338.94;;;3.13;72.13
17785;BME280;9016;53.582;10.062;2023-04-03T02:59:48;103336.00;;;2.89;72.90
17785;BME280;9016;53.582;10.062;2023-04-03T03:02:16;103341.38;;;2.96;72.46
17785;BME280;9016;53.582;10.062;2023-04-03T03:04:45;103349.31;;;3.01;73.28
17785;BME280;9016;53.582;10.062;2023-04-03T03:07:14;103346.69;;;3.01;71.69
17785;BME280;9016;53.582;10.062;2023-04-03T03:09:43;103341.16;;;2.81;73.02
17785;BME280;9016;53.582;10.062;2023-04-03T03:12:11;103337.66;;;2.82;74.29
17785;BME280;9016;53.582;10.062;2023-04-03T03:14:39;103338.66;;;2.92;73.22
17785;BME280;9016;53.582;10.062;2023-04-03T03:17:10;103343.13;;;2.99;73.58
17785;BME280;9016;53.582;10.062;2023-04-03T03:19:38;103345.00;;;3.06;72.86
17785;BME280;9016;53.582;10.062;2023-04-03T03:22:07;103344.97;;;3.04;72.37
17785;BME280;9016;53.582;10.062;2023-04-03T03:24:35;103341.41;;;3.02;73.25
17785;BME280;9016;53.582;10.062;2023-04-03T03:27:04;103337.94;;;3.02;72.39
17785;BME280;9016;53.582;10.062;2023-04-03T03:29:32;103338.84;;;3.07;72.18
17785;BME280;9016;53.582;10.062;2023-04-03T03:32:00;103342.28;;;3.00;71.88
17785;BME280;9016;53.582;10.062;2023-04-03T03:34:32;103334.38;;;2.98;72.04
17785;BME280;9016;53.582;10.062;2023-04-03T03:37:02;103344.13;;;3.07;72.30
17785;BME280;9016;53.582;10.062;2023-04-03T03:39:32;103331.78;;;3.04;72.76
17785;BME280;9016;53.582;10.062;2023-04-03T03:42:02;103333.50;;;3.01;71.86
17785;BME280;9016;53.582;10.062;2023-04-03T03:44:30;103343.19;;;3.00;72.25
17785;BME280;9016;53.582;10.062;2023-04-03T03:46:58;103341.47;;;3.04;71.60
17785;BME280;9016;53.582;10.062;2023-04-03T03:49:26;103344.13;;;3.07;71.82
17785;BME280;9016;53.582;10.062;2023-04-03T03:51:55;103348.50;;;3.08;71.90
17785;BME280;9016;53.582;10.062;2023-04-03T03:54:24;103345.00;;;3.06;71.87
17785;BME280;9016;53.582;10.062;2023-04-03T03:56:52;103343.09;;;2.96;71.89
17785;BME280;9016;53.582;10.062;2023-04-03T03:59:21;103344.00;;;2.96;72.05
17785;BME280;9016;53.582;10.062;2023-04-03T04:01:50;103347.59;;;3.04;71.74
17785;BME280;9016;53.582;10.062;2023-04-03T04:04:18;103350.28;;;3.06;71.72
17785;BME280;9016;53.582;10.062;2023-04-03T04:06:47;103345.84;;;3.05;71.74
17785;BME280;9016;53.582;10.062;2023-04-03T04:09:16;103346.78;;;3.09;71.98
17785;BME280;9016;53.582;10.062;2023-04-03T04:11:45;103342.41;;;3.09;71.16
17785;BME280;9016;53.582;10.062;2023-04-03T04:14:13;103352.03;;;3.07;71.32
17785;BME280;9016;53.582;10.062;2023-04-03T04:16:41;103340.50;;;2.97;72.18
17785;BME280;9016;53.582;10.062;2023-04-03T04:19:10;103340.50;;;2.99;71.41
17785;BME280;9016;53.582;10.062;2023-04-03T04:21:38;103348.38;;;2.96;71.95
17785;BME280;9016;53.582;10.062;2023-04-03T04:24:07;103346.72;;;3.04;72.18
17785;BME280;9016;53.582;10.062;2023-04-03T04:26:37;103345.03;;;3.09;71.93
17785;BME280;9016;53.582;10.062;2023-04-03T04:29:08;103349.41;;;3.07;71.56
17785;BME280;9016;53.582;10.062;2023-04-03T04:31:37;103353.75;;;3.05;71.67
17785;BME280;9016;53.582;10.062;2023-04-03T04:34:04;103351.09;;;3.00;72.01
17785;BME280;9016;53.582;10.062;2023-04-03T04:36:34;103356.28;;;2.97;72.53
17785;BME280;9016;53.582;10.062;2023-04-03T04:39:03;103353.75;;;3.03;71.84
17785;BME280;9016;53.582;10.062;2023-04-03T04:41:34;103354.63;;;3.04;72.41
17785;BME280;9016;53.582;10.062;2023-04-03T04:44:04;103361.78;;;3.16;71.29
17785;BME280;9016;53.582;10.062;2023-04-03T04:46:33;103361.75;;;3.11;71.84
17785;BME280;9016;53.582;10.062;2023-04-03T04:49:01;103367.91;;;3.12;71.87
17785;BME280;9016;53.582;10.062;2023-04-03T04:51:29;103366.94;;;3.07;71.50
17785;BME280;9016;53.582;10.062;2023-04-03T04:54:10;103375.75;;;3.09;71.39
17785;BME280;9016;53.582;10.062;2023-04-03T04:56:38;103373.13;;;3.10;72.15
17785;BME280;9016;53.582;10.062;2023-04-03T04:59:07;103374.00;;;3.08;72.01
17785;BME280;9016;53.582;10.062;2023-04-03T05:01:37;103383.56;;;3.02;72.09
17785;BME280;9016;53.582;10.062;2023-04-03T05:04:06;103383.72;;;3.13;71.41
17785;BME280;9016;53.582;10.062;2023-04-03T05:06:34;103384.66;;;3.20;70.89
17785;BME280;9016;53.582;10.062;2023-04-03T05:09:03;103382.03;;;3.21;71.14
17785;BME280;9016;53.582;10.062;2023-04-03T05:11:31;103392.59;;;3.21;70.95
17785;BME280;9016;53.582;10.062;2023-04-03T05:13:59;103392.63;;;3.23;71.07
17785;BME280;9016;53.582;10.062;2023-04-03T05:16:29;103382.00;;;3.17;71.25
17785;BME280;9016;53.582;10.062;2023-04-03T05:18:57;103397.00;;;3.21;71.21
17785;BME280;9016;53.582;10.062;2023-04-03T05:21:25;103390.84;;;3.20;70.94
17785;BME280;9016;53.582;10.062;2023-04-03T05:24:01;103399.56;;;3.16;71.07
17785;BME280;9016;53.582;10.062;2023-04-03T05:26:30;103389.09;;;3.21;71.54
17785;BME280;9016;53.582;10.062;2023-04-03T05:28:58;103399.69;;;3.27;71.14
17785;BME280;9016;53.582;10.062;2023-04-03T05:31:29;103395.25;;;3.23;71.36
17785;BME280;9016;53.582;10.062;2023-04-03T05:33:58;103398.66;;;3.14;71.53
17785;BME280;9016;53.582;10.062;2023-04-03T05:36:26;103405.50;;;3.01;72.25
17785;BME280;9016;53.582;10.062;2023-04-03T05:38:54;103402.94;;;3.06;71.83
17785;BME280;9016;53.582;10.062;2023-04-03T05:41:24;103401.34;;;3.17;72.21
17785;BME280;9016;53.582;10.062;2023-04-03T05:43:52;103414.66;;;3.29;71.35
17785;BME280;9016;53.582;10.062;2023-04-03T05:46:20;103413.84;;;3.33;71.05
17785;BME280;9016;53.582;10.062;2023-04-03T05:48:50;103419.13;;;3.38;70.54
17785;BME280;9016;53.582;10.062;2023-04-03T05:51:19;103413.16;;;3.51;70.66
17785;BME280;9016;53.582;10.062;2023-04-03T05:53:52;103417.69;;;3.65;70.60
17785;BME280;9016;53.582;10.062;2023-04-03T05:56:22;103422.97;;;3.65;70.53
17785;BME280;9016;53.582;10.062;2023-04-03T05:58:50;103406.16;;;3.54;70.76
17785;BME280;9016;53.582;10.062;2023-04-03T06:01:18;103419.47;;;3.65;71.39
17785;BME280;9016;53.582;10.062;2023-04-03T06:03:46;103418.69;;;3.73;70.82
17785;BME280;9016;53.582;10.062;2023-04-03T06:06:15;103425.78;;;3.79;68.82
17785;BME280;9016;53.582;10.062;2023-04-03T06:08:43;103416.03;;;3.70;69.89
17785;BME280;9016;53.582;10.062;2023-04-03T06:11:12;103421.31;;;3.72;69.87
17785;BME280;9016;53.582;10.062;2023-04-03T06:13:41;103425.75;;;3.76;69.49
17785;BME280;9016;53.582;10.062;2023-04-03T06:16:09;103429.34;;;3.84;68.83
17785;BME280;9016;53.582;10.062;2023-04-03T06:18:41;103432.09;;;3.96;69.42
17785;BME280;9016;53.582;10.062;2023-04-03T06:21:09;103420.75;;;4.06;69.56
17785;BME280;9016;53.582;10.062;2023-04-03T06:23:38;103420.78;;;4.08;68.90
17785;BME280;9016;53.582;10.062;2023-04-03T06:26:07;103423.53;;;4.20;68.12
17785;BME280;9016;53.582;10.062;2023-04-03T06:28:40;103426.22;;;4.26;68.09
17785;BME280;9016;53.582;10.062;2023-04-03T06:31:08;103424.50;;;4.28;67.83
17785;BME280;9016;53.582;10.062;2023-04-03T06:33:36;103430.75;;;4.42;66.91
17785;BME280;9016;53.582;10.062;2023-04-03T06:36:05;103429.09;;;4.53;66.26
17785;BME280;9016;53.582;10.062;2023-04-03T06:38:33;103432.69;;;4.65;66.40
17785;BME280;9016;53.582;10.062;2023-04-03T06:41:05;103435.31;;;4.64;65.04
17785;BME280;9016;53.582;10.062;2023-04-03T06:43:33;103441.56;;;4.75;65.25
17785;BME280;9016;53.582;10.062;2023-04-03T06:46:01;103438.03;;;4.74;64.21
17785;BME280;9016;53.582;10.062;2023-04-03T06:48:29;103439.88;;;4.84;64.35
17785;BME280;9016;53.582;10.062;2023-04-03T06:50:58;103447.06;;;5.05;64.62
17785;BME280;9016;53.582;10.062;2023-04-03T06:53:25;103439.13;;;5.07;62.76
17785;BME280;9016;53.582;10.062;2023-04-03T06:55:54;103451.53;;;5.21;64.16
17785;BME280;9016;53.582;10.062;2023-04-03T06:58:23;103445.44;;;5.31;63.29
17785;BME280;9016;53.582;10.062;2023-04-03T07:00:51;103445.47;;;5.43;62.33
17785;BME280;9016;53.582;10.062;2023-04-03T07:03:19;103448.13;;;5.43;62.02
17785;BME280;9016;53.582;10.062;2023-04-03T07:05:47;103447.31;;;5.62;62.08
17785;BME280;9016;53.582;10.062;2023-04-03T07:08:15;103449.97;;;5.73;61.98
17785;BME280;9016;53.582;10.062;2023-04-03T07:10:43;103449.19;;;5.92;60.89
17785;BME280;9016;53.582;10.062;2023-04-03T07:13:12;103457.09;;;5.89;61.24
17785;BME280;9016;53.582;10.062;2023-04-03T07:15:41;103456.25;;;5.99;60.20
17785;BME280;9016;53.582;10.062;2023-04-03T07:18:09;103458.06;;;6.20;60.08
17785;BME280;9016;53.582;10.062;2023-04-03T07:20:38;103453.63;;;6.16;59.30
17785;BME280;9016;53.582;10.062;2023-04-03T07:23:06;103454.53;;;6.28;59.85
17785;BME280;9016;53.582;10.062;2023-04-03T07:25:34;103462.47;;;6.46;59.64
17785;BME280;9016;53.582;10.062;2023-04-03T07:28:03;103463.91;;;7.80;57.74
17785;BME280;9016;53.582;10.062;2023-04-03T07:30:31;103446.63;;;10.55;53.23
17785;BME280;9016;53.582;10.062;2023-04-03T07:33:00;103439.66;;;11.82;43.54
17785;BME280;9016;53.582;10.062;2023-04-03T07:35:28;103442.44;;;12.51;41.41
17785;BME280;9016;53.582;10.062;2023-04-03T07:37:56;103440.78;;;13.74;40.43
17785;BME280;9016;53.582;10.062;2023-04-03T07:40:25;103432.72;;;14.57;39.00
17785;BME280;9016;53.582;10.062;2023-04-03T07:42:53;103433.13;;;15.45;35.10
17785;BME280;9016;53.582;10.062;2023-04-03T07:45:21;103428.81;;;16.52;33.77
17785;BME280;9016;53.582;10.062;2023-04-03T07:47:50;103425.06;;;17.55;31.35
17785;BME280;9016;53.582;10.062;2023-04-03T07:50:20;103425.19;;;17.90;30.84
17785;BME280;9016;53.582;10.062;2023-04-03T07:52:48;103422.84;;;18.19;28.21
17785;BME280;9016;53.582;10.062;2023-04-03T07:55:17;103433.13;;;17.17;29.96
17785;BME280;9016;53.582;10.062;2023-04-03T07:57:45;103427.69;;;17.75;30.05
17785;BME280;9016;53.582;10.062;2023-04-03T08:00:14;103430.16;;;17.23;29.88
17785;BME280;9016;53.582;10.062;2023-04-03T08:02:44;103425.31;;;18.42;28.82
17785;BME280;9016;53.582;10.062;2023-04-03T08:05:17;103433.00;;;18.14;28.48
17785;BME280;9016;53.582;10.062;2023-04-03T08:07:47;103426.59;;;18.34;27.97
17785;BME280;9016;53.582;10.062;2023-04-03T08:10:16;103420.69;;;18.61;27.09
17785;BME280;9016;53.582;10.062;2023-04-03T08:12:45;103432.78;;;18.71;27.59
17785;BME280;9016;53.582;10.062;2023-04-03T08:15:14;103421.56;;;18.26;26.82
17785;BME280;9016;53.582;10.062;2023-04-03T08:17:42;103430.16;;;18.87;27.10
17785;BME280;9016;53.582;10.062;2023-04-03T08:20:11;103417.50;;;19.05;26.32
17785;BME280;9016;53.582;10.062;2023-04-03T08:22:39;103414.91;;;19.84;26.18
17785;BME280;9016;53.582;10.062;2023-04-03T08:25:09;103425.66;;;20.01;24.84
17785;BME280;9016;53.582;10.062;2023-04-03T08:27:37;103423.75;;;19.39;25.44
17785;BME280;9016;53.582;10.062;2023-04-03T08:30:06;103420.75;;;19.11;25.94
17785;BME280;9016;53.582;10.062;2023-04-03T08:32:35;103417.78;;;18.66;25.78
17785;BME280;9016;53.582;10.062;2023-04-03T08:35:04;103417.59;;;18.86;26.40
17785;BME280;9016;53.582;10.062;2023-04-03T08:37:34;103424.03;;;19.01;25.97
17785;BME280;9016;53.582;10.062;2023-04-03T08:40:03;103420.75;;;20.08;24.21
17785;BME280;9016;53.582;10.062;2023-04-03T08:42:42;103421.09;;;19.05;24.51
17785;BME280;9016;53.582;10.062;2023-04-03T08:45:16;103429.59;;;18.81;25.03
17785;BME280;9016;53.582;10.062;2023-04-03T08:47:49;103413.31;;;19.64;24.81
17785;BME280;9016;53.582;10.062;2023-04-03T08:50:26;103416.03;;;19.80;23.78
17785;BME280;9016;53.582;10.062;2023-04-03T08:52:57;103415.41;;;20.37;22.70
17785;BME280;9016;53.582;10.062;2023-04-03T08:55:28;103408.59;;;21.19;23.45
17785;BME280;9016;53.582;10.062;2023-04-03T08:58:01;103415.56;;;20.80;21.77
17785;BME280;9016;53.582;10.062;2023-04-03T09:00:34;103404.78;;;21.64;20.94
17785;BME280;9016;53.582;10.062;2023-04-03T09:03:11;103408.19;;;21.25;21.64
17785;BME280;9016;53.582;10.062;2023-04-03T09:05:45;103409.19;;;20.81;21.25
17785;BME280;9016;53.582;10.062;2023-04-03T09:08:22;103412.53;;;21.00;21.37
17785;BME280;9016;53.582;10.062;2023-04-03T09:11:04;103405.44;;;19.44;21.91
17785;BME280;9016;53.582;10.062;2023-04-03T09:13:43;103402.50;;;19.80;22.96
17785;BME280;9016;53.582;10.062;2023-04-03T09:16:20;103407.84;;;19.97;21.99
17785;BME280;9016;53.582;10.062;2023-04-03T09:18:53;103411.53;;;19.32;21.76
17785;BME280;9016;53.582;10.062;2023-04-03T09:21:27;103402.34;;;18.51;23.08
17785;BME280;9016;53.582;10.062;2023-04-03T09:24:00;103397.09;;;19.80;22.25
17785;BME280;9016;53.582;10.062;2023-04-03T09:26:33;103399.47;;;19.05;22.09
17785;BME280;9016;53.582;10.062;2023-04-03T09:29:06;103401.69;;;19.30;22.44
17785;BME280;9016;53.582;10.062;2023-04-03T09:31:37;103400.94;;;18.61;22.56
17785;BME280;9016;53.582;10.062;2023-04-03T09:34:17;103405.09;;;19.50;21.86
17785;BME280;9016;53.582;10.062;2023-04-03T09:36:49;103401.16;;;19.40;22.93
17785;BME280;9016;53.582;10.062;2023-04-03T09:39:21;103402.13;;;18.55;22.83
17785;BME280;9016;53.582;10.062;2023-04-03T09:42:00;103405.41;;;16.95;23.16
17785;BME280;9016;53.582;10.062;2023-04-03T09:44:32;103408.03;;;15.68;24.36
17785;BME280;9016;53.582;10.062;2023-04-03T09:47:18;103397.41;;;15.65;25.33
17785;BME280;9016;53.582;10.062;2023-04-03T09:49:46;103397.63;;;15.36;25.77
17785;BME280;9016;53.582;10.062;2023-04-03T09:52:24;103403.75;;;14.67;24.71
17785;BME280;9016;53.582;10.062;2023-04-03T09:54:52;103402.34;;;14.31;25.56
17785;BME280;9016;53.582;10.062;2023-04-03T09:57:20;103397.56;;;14.65;26.22
17785;BME280;9016;53.582;10.062;2023-04-03T09:59:59;103391.28;;;14.66;25.49
17785;BME280;9016;53.582;10.062;2023-04-03T10:02:35;103391.97;;;13.93;26.66
17785;BME280;9016;53.582;10.062;2023-04-03T10:05:05;103393.31;;;13.20;26.46
17785;BME280;9016;53.582;10.062;2023-04-03T10:08:07;103393.81;;;13.02;26.29
17785;BME280;9016;53.582;10.062;2023-04-03T10:10:36;103383.41;;;12.91;25.39
17785;BME280;9016;53.582;10.062;2023-04-03T10:13:07;103386.91;;;12.93;25.58
17785;BME280;9016;53.582;10.062;2023-04-03T10:15:44;103385.41;;;13.46;25.22
17785;BME280;9016;53.582;10.062;2023-04-03T10:18:27;103382.44;;;13.55;25.98
17785;BME280;9016;53.582;10.062;2023-04-03T10:21:02;103385.41;;;13.15;25.96
17785;BME280;9016;53.582;10.062;2023-04-03T10:23:51;103376.75;;;13.36;25.99
17785;BME280;9016;53.582;10.062;2023-04-03T10:26:29;103375.13;;;12.98;25.91
17785;BME280;9016;53.582;10.062;2023-04-03T10:29:05;103378.13;;;13.20;25.96
17785;BME280;9016;53.582;10.062;2023-04-03T10:31:42;103382.50;;;12.58;26.84
17785;BME280;9016;53.582;10.062;2023-04-03T10:34:18;103380.66;;;11.91;27.21
17785;BME280;9016;53.582;10.062;2023-04-03T10:36:57;103370.25;;;12.16;28.56
17785;BME280;9016;53.582;10.062;2023-04-03T10:39:32;103376.84;;;12.02;28.88
17785;BME280;9016;53.582;10.062;2023-04-03T10:42:05;103368.84;;;11.63;28.84
17785;BME280;9016;53.582;10.062;2023-04-03T10:47:40;103375.19;;;11.58;29.60
17785;BME280;9016;53.582;10.062;2023-04-03T10:50:29;103364.84;;;11.82;29.50
17785;BME280;9016;53.582;10.062;2023-04-03T10:53:10;103361.38;;;11.79;30.27
17785;BME280;9016;53.582;10.062;2023-04-03T10:55:46;103358.25;;;11.99;30.56
17785;BME280;9016;53.582;10.062;2023-04-03T10:58:21;103361.31;;;11.80;30.66
17785;BME280;9016;53.582;10.062;2023-04-03T11:00:54;103356.75;;;11.46;31.07
17785;BME280;9016;53.582;10.062;2023-04-03T11:03:31;103353.16;;;11.86;30.62
17785;BME280;9016;53.582;10.062;2023-04-03T11:06:02;103348.94;;;11.78;30.65
17785;BME280;9016;53.582;10.062;2023-04-03T11:08:35;103343.72;;;11.72;30.61
17785;BME280;9016;53.582;10.062;2023-04-03T11:11:09;103342.84;;;11.71;31.66
17785;BME280;9016;53.582;10.062;2023-04-03T11:13:44;103337.09;;;11.88;31.47
17785;BME280;9016;53.582;10.062;2023-04-03T11:16:19;103330.13;;;11.43;31.60
17785;BME280;9016;53.582;10.062;2023-04-03T11:18:52;103319.53;;;11.40;31.77
17785;BME280;9016;53.582;10.062;2023-04-03T11:21:28;103317.09;;;11.69;32.05
17785;BME280;9016;53.582;10.062;2023-04-03T11:23:58;103318.94;;;12.02;32.36
17785;BME280;9016;53.582;10.062;2023-04-03T11:26:29;103318.88;;;12.39;31.76
17785;BME280;9016;53.582;10.062;2023-04-03T11:29:02;103317.47;;;12.24;31.82
17785;BME280;9016;53.582;10.062;2023-04-03T11:31:41;103315.91;;;11.82;32.45
17785;BME280;9016;53.582;10.062;2023-04-03T11:34:24;103315.41;;;11.63;32.64
17785;BME280;9016;53.582;10.062;2023-04-03T11:36:56;103319.72;;;11.31;33.49
17785;BME280;9016;53.582;10.062;2023-04-03T11:39:28;103314.50;;;10.85;34.79
17785;BME280;9016;53.582;10.062;2023-04-03T11:42:14;103309.19;;;10.83;34.90
17785;BME280;9016;53.582;10.062;2023-04-03T11:44:43;103320.00;;;10.76;34.87
17785;BME280;9016;53.582;10.062;2023-04-03T11:47:44;103313.81;;;10.74;34.83
17785;BME280;9016;53.582;10.062;2023-04-03T11:50:31;103316.59;;;10.69;34.36
17785;BME280;9016;53.582;10.062;2023-04-03T11:53:02;103308.81;;;10.57;34.80
17785;BME280;9016;53.582;10.062;2023-04-03T11:55:58;103303.72;;;10.47;33.88
17785;BME280;9016;53.582;10.062;2023-04-03T11:58:28;103301.63;;;10.61;33.69
17785;BME280;9016;53.582;10.062;2023-04-03T12:01:03;103307.50;;;10.79;33.78
17785;BME280;9016;53.582;10.062;2023-04-03T12:09:33;103290.28;;;10.95;33.34
17785;BME280;9016;53.582;10.062;2023-04-03T12:12:33;103290.09;;;11.05;33.50
17785;BME280;9016;53.582;10.062;2023-04-03T12:15:19;103287.88;;;11.23;32.87
17785;BME280;9016;53.582;10.062;2023-04-03T12:17:49;103282.06;;;11.05;32.37
17785;BME280;9016;53.582;10.062;2023-04-03T12:20:46;103279.00;;;10.81;32.22
17785;BME280;9016;53.582;10.062;2023-04-03T12:23:34;103286.47;;;10.64;33.33
17785;BME280;9016;53.582;10.062;2023-04-03T12:26:19;103279.56;;;10.54;33.21
17785;BME280;9016;53.582;10.062;2023-04-03T12:28:51;103277.69;;;10.59;32.44
17785;BME280;9016;53.582;10.062;2023-04-03T12:31:23;103279.34;;;10.65;32.51
17785;BME280;9016;53.582;10.062;2023-04-03T12:34:07;103276.97;;;10.51;32.46
17785;BME280;9016;53.582;10.062;2023-04-03T12:36:52;103270.22;;;10.32;32.05
17785;BME280;9016;53.582;10.062;2023-04-03T12:39:49;103263.91;;;10.38;30.72
17785;BME280;9016;53.582;10.062;2023-04-03T12:45:26;103259.81;;;10.63;31.45
17785;BME280;9016;53.582;10.062;2023-04-03T12:47:55;103258.47;;;10.44;32.14
17785;BME280;9016;53.582;10.062;2023-04-03T12:50:25;103258.50;;;10.41;32.59
17785;BME280;9016;53.582;10.062;2023-04-03T12:52:59;103256.53;;;10.50;32.99
17785;BME280;9016;53.582;10.062;2023-04-03T12:55:29;103259.31;;;10.46;32.52
17785;BME280;9016;53.582;10.062;2023-04-03T12:58:13;103257.13;;;10.66;32.68
17785;BME280;9016;53.582;10.062;2023-04-03T13:00:44;103254.34;;;10.70;33.09
17785;BME280;9016;53.582;10.062;2023-04-03T13:03:23;103271.31;;;10.68;31.53
17785;BME280;9016;53.582;10.062;2023-04-03T13:05:55;103266.06;;;10.63;31.65
17785;BME280;9016;53.582;10.062;2023-04-03T13:08:24;103259.13;;;10.55;31.50
17785;BME280;9016;53.582;10.062;2023-04-03T13:10:56;103257.16;;;10.63;31.95
17785;BME280;9016;53.582;10.062;2023-04-03T13:13:26;103252.47;;;10.31;31.37
17785;BME280;9016;53.582;10.062;2023-04-03T13:15:56;103252.13;;;10.49;31.74
17785;BME280;9016;53.582;10.062;2023-04-03T13:18:27;103254.25;;;10.32;31.56
17785;BME280;9016;53.582;10.062;2023-04-03T13:21:00;103248.44;;;10.09;31.85
17785;BME280;9016;53.582;10.062;2023-04-03T13:23:30;103255.19;;;10.28;32.19
17785;BME280;9016;53.582;10.062;2023-04-03T13:25:59;103248.66;;;10.44;32.10
17785;BME280;9016;53.582;10.062;2023-04-03T13:28:31;103244.63;;;10.66;32.04
17785;BME280;9016;53.582;10.062;2023-04-03T13:31:06;103237.41;;;10.73;32.10